createdAt,value
2022-09-27T00:00:49.805Z,1.8
2022-09-27T00:02:49.849Z,1.8
2022-09-27T00:04:49.654Z,1.8
2022-09-27T00:06:49.937Z,1.9
2022-09-27T00:08:49.930Z,1.8
2022-09-27T00:10:50.005Z,2.9
2022-09-27T00:12:49.971Z,2.9
2022-09-27T00:14:49.893Z,3.6
2022-09-27T00:16:49.989Z,2.1
2022-09-27T00:18:49.916Z,2.2
2022-09-27T00:20:49.767Z,2.2
2022-09-27T00:22:49.727Z,2.8
2022-09-27T00:24:49.972Z,2.9
2022-09-27T00:26:50.481Z,2.9
2022-09-27T00:28:50.373Z,2.4
2022-09-27T00:30:49.602Z,3.3
2022-09-27T00:32:49.961Z,2.4
2022-09-27T00:34:50.530Z,2.4
2022-09-27T00:36:49.903Z,2.7
2022-09-27T00:38:49.964Z,2.7
2022-09-27T00:40:50.133Z,2.6
2022-09-27T00:42:50.542Z,2.9
2022-09-27T00:44:49.623Z,2.9
2022-09-27T00:46:49.981Z,2.9
2022-09-27T00:48:49.882Z,2.9
2022-09-27T00:50:49.627Z,3.0
2022-09-27T00:52:50.410Z,3.2
2022-09-27T00:54:50.388Z,2.5
2022-09-27T00:56:49.610Z,3.1
2022-09-27T00:58:50.497Z,2.4
2022-09-27T01:00:50.453Z,2.4
2022-09-27T01:02:50.358Z,3.1
2022-09-27T01:04:50.453Z,2.6
2022-09-27T01:06:49.606Z,2.3
2022-09-27T01:08:49.729Z,2.3
2022-09-27T01:10:49.671Z,2.2
2022-09-27T01:12:49.686Z,2.2
2022-09-27T01:14:49.677Z,1.9
2022-09-27T01:16:49.722Z,1.8
2022-09-27T01:18:49.758Z,1.8
2022-09-27T01:20:50.447Z,1.8
2022-09-27T01:22:50.325Z,1.7
2022-09-27T01:24:50.226Z,1.4
2022-09-27T01:26:50.359Z,1.6
2022-09-27T01:28:50.296Z,1.6
2022-09-27T01:30:50.206Z,1.8
2022-09-27T01:32:49.550Z,1.5
2022-09-27T01:34:49.739Z,1.6
2022-09-27T01:36:50.029Z,1.6
2022-09-27T01:38:49.990Z,2.1
2022-09-27T01:40:49.957Z,1.4
2022-09-27T01:42:50.264Z,1.6
2022-09-27T01:44:50.223Z,1.4
2022-09-27T01:46:50.413Z,1.5
2022-09-27T01:48:50.200Z,1.5
2022-09-27T01:50:50.052Z,1.5
2022-09-27T01:52:50.088Z,1.4
2022-09-27T01:54:49.964Z,1.5
2022-09-27T01:56:49.989Z,1.5
2022-09-27T01:58:49.971Z,1.5
2022-09-27T02:00:49.754Z,1.7
2022-09-27T02:02:49.714Z,1.7
2022-09-27T02:04:50.351Z,1.5
2022-09-27T02:06:50.485Z,1.5
2022-09-27T02:08:49.654Z,1.4
2022-09-27T02:10:49.606Z,1.3
2022-09-27T02:12:50.417Z,1.9
2022-09-27T02:14:50.230Z,1.9
2022-09-27T02:16:49.625Z,1.5
2022-09-27T02:18:50.383Z,1.6
2022-09-27T02:20:50.320Z,1.6
2022-09-27T02:22:50.039Z,1.4
2022-09-27T02:24:49.867Z,1.4
2022-09-27T02:26:50.106Z,1.9
2022-09-27T02:28:49.832Z,1.3
2022-09-27T02:30:49.887Z,1.3
2022-09-27T02:32:50.186Z,1.4
2022-09-27T02:34:50.456Z,1.4
2022-09-27T02:36:50.383Z,1.7
2022-09-27T02:38:50.315Z,1.6
2022-09-27T02:40:50.613Z,1.6
2022-09-27T02:42:50.050Z,2.9
2022-09-27T02:44:49.885Z,2.9
2022-09-27T02:46:50.030Z,1.6
2022-09-27T02:48:49.844Z,1.4
2022-09-27T02:50:49.908Z,1.4
2022-09-27T02:52:49.686Z,1.5
2022-09-27T02:54:49.759Z,1.5
2022-09-27T02:56:50.005Z,1.6
2022-09-27T02:58:50.004Z,1.4
2022-09-27T03:00:49.964Z,1.5
2022-09-27T03:02:49.833Z,1.5
2022-09-27T03:04:50.341Z,2.3
2022-09-27T03:06:49.770Z,1.4
2022-09-27T03:08:49.754Z,1.9
2022-09-27T03:10:49.789Z,1.9
2022-09-27T03:12:49.747Z,1.4
2022-09-27T03:14:49.854Z,1.4
2022-09-27T03:16:50.255Z,1.5
2022-09-27T03:18:50.345Z,1.7
2022-09-27T03:20:50.333Z,1.3
2022-09-27T03:22:50.243Z,1.4
2022-09-27T03:24:50.274Z,1.4
2022-09-27T03:26:49.649Z,1.3
2022-09-27T03:28:50.433Z,1.3
2022-09-27T03:30:50.534Z,1.3
2022-09-27T03:32:49.675Z,1.3
2022-09-27T03:34:49.981Z,1.4
2022-09-27T03:36:50.118Z,1.4
2022-09-27T03:38:49.825Z,1.6
2022-09-27T03:40:49.856Z,1.5
2022-09-27T03:42:50.416Z,1.5
2022-09-27T03:44:50.410Z,1.5
2022-09-27T03:46:49.645Z,1.5
2022-09-27T03:48:50.521Z,1.4
2022-09-27T03:50:50.449Z,1.4
2022-09-27T03:52:50.461Z,1.4
2022-09-27T03:54:50.356Z,1.6
2022-09-27T03:56:50.471Z,1.6
2022-09-27T03:58:50.295Z,1.5
2022-09-27T04:00:50.304Z,1.5
2022-09-27T04:02:50.149Z,1.6
2022-09-27T04:04:50.006Z,1.4
2022-09-27T04:06:50.291Z,1.3
2022-09-27T04:08:50.079Z,1.3
2022-09-27T04:10:49.999Z,2.3
2022-09-27T04:12:49.736Z,1.7
2022-09-27T04:14:49.633Z,1.6
2022-09-27T04:16:49.862Z,1.4
2022-09-27T04:18:50.186Z,1.2
2022-09-27T04:20:50.133Z,1.2
2022-09-27T04:22:49.823Z,1.3
2022-09-27T04:24:49.919Z,1.5
2022-09-27T04:26:50.040Z,1.3
2022-09-27T04:28:53.591Z,1.6
2022-09-27T04:30:49.754Z,1.6
2022-09-27T04:32:50.078Z,1.5
2022-09-27T04:34:50.530Z,1.6
2022-09-27T04:36:50.582Z,3.0
2022-09-27T04:38:49.561Z,1.7
2022-09-27T04:40:49.599Z,1.7
2022-09-27T04:42:49.690Z,1.7
2022-09-27T04:44:49.584Z,2.5
2022-09-27T04:46:49.727Z,2.5
2022-09-27T04:48:50.498Z,1.7
2022-09-27T04:50:50.352Z,1.7
2022-09-27T04:52:50.207Z,1.7
2022-09-27T04:54:50.149Z,3.7
2022-09-27T04:56:50.333Z,3.8
2022-09-27T04:58:50.253Z,2.9
2022-09-27T05:00:50.251Z,2.9
2022-09-27T05:02:50.006Z,1.8
2022-09-27T05:04:50.005Z,4.1
2022-09-27T05:06:53.691Z,1.7
2022-09-27T05:08:50.276Z,1.7
2022-09-27T05:10:50.194Z,4.1
2022-09-27T05:12:50.094Z,2.8
2022-09-27T05:14:50.148Z,5.0
2022-09-27T05:16:50.187Z,5.0
2022-09-27T05:18:50.399Z,2.2
2022-09-27T05:20:50.346Z,3.2
2022-09-27T05:22:50.432Z,2.9
2022-09-27T05:24:50.288Z,2.9
2022-09-27T05:26:50.430Z,2.9
2022-09-27T05:28:50.226Z,2.2
2022-09-27T05:30:50.285Z,2.1
2022-09-27T05:32:49.592Z,4.0
2022-09-27T05:34:49.902Z,3.6
2022-09-27T05:36:50.144Z,2.7
2022-09-27T05:38:50.040Z,2.7
2022-09-27T05:40:50.149Z,2.3
2022-09-27T05:42:50.485Z,2.6
2022-09-27T05:44:50.484Z,2.6
2022-09-27T05:46:49.971Z,2.3
2022-09-27T05:48:49.999Z,2.3
2022-09-27T05:50:50.041Z,2.1
2022-09-27T05:52:50.127Z,2.3
2022-09-27T05:54:50.127Z,2.4
2022-09-27T05:56:50.296Z,2.4
2022-09-27T05:58:50.103Z,3.4
2022-09-27T06:00:49.970Z,2.2
2022-09-27T06:02:49.805Z,2.9
2022-09-27T06:04:50.274Z,3.3
2022-09-27T06:06:50.379Z,3.3
2022-09-27T06:08:50.317Z,4.7
2022-09-27T06:10:49.723Z,3.6
2022-09-27T06:12:49.610Z,3.6
2022-09-27T06:14:49.728Z,2.9
2022-09-27T06:16:49.829Z,2.9
2022-09-27T06:18:49.803Z,4.1
2022-09-27T06:20:49.626Z,2.5
2022-09-27T06:22:50.350Z,3.1
2022-09-27T06:24:50.351Z,3.1
2022-09-27T06:26:49.550Z,3.4
2022-09-27T06:28:50.453Z,3.5
2022-09-27T06:30:50.675Z,3.6
2022-09-27T06:32:50.189Z,2.8
2022-09-27T06:34:49.992Z,2.3
2022-09-27T06:36:50.773Z,2.3
2022-09-27T06:38:49.689Z,2.6
2022-09-27T06:40:50.074Z,2.1
2022-09-27T06:42:49.749Z,2.1
2022-09-27T06:44:50.231Z,2.5
2022-09-27T06:46:50.323Z,2.5
2022-09-27T06:48:50.247Z,1.8
2022-09-27T06:50:50.299Z,1.5
2022-09-27T06:52:50.465Z,1.5
2022-09-27T06:54:50.362Z,1.5
2022-09-27T06:56:49.637Z,1.7
2022-09-27T06:58:49.548Z,1.7
2022-09-27T07:00:50.544Z,2.1
2022-09-27T07:02:50.003Z,1.4
2022-09-27T07:04:50.545Z,1.4
2022-09-27T07:06:50.261Z,2.2
2022-09-27T07:08:49.563Z,1.3
2022-09-27T07:10:49.912Z,1.3
2022-09-27T07:12:49.716Z,1.9
2022-09-27T07:14:50.341Z,1.2
2022-09-27T07:16:49.809Z,1.2
2022-09-27T07:18:50.081Z,1.4
2022-09-27T07:20:50.006Z,1.2
2022-09-27T07:22:50.037Z,1.2
2022-09-27T07:24:49.907Z,1.2
2022-09-27T07:26:50.020Z,1.4
2022-09-27T07:28:49.851Z,1.3
2022-09-27T07:30:49.894Z,1.3
2022-09-27T07:32:50.244Z,1.5
2022-09-27T07:34:49.798Z,1.2
2022-09-27T07:36:50.148Z,1.2
2022-09-27T07:38:50.110Z,1.2
2022-09-27T07:40:50.390Z,1.3
2022-09-27T07:42:49.878Z,3.2
2022-09-27T07:44:49.793Z,1.3
2022-09-27T07:46:50.212Z,1.3
2022-09-27T07:48:50.178Z,1.2
2022-09-27T07:50:50.213Z,1.2
2022-09-27T07:52:50.150Z,1.3
2022-09-27T07:54:49.891Z,1.3
2022-09-27T07:56:49.968Z,1.2
2022-09-27T07:58:50.005Z,0.9
2022-09-27T08:00:49.946Z,1.1
2022-09-27T08:02:50.108Z,1.1
2022-09-27T08:04:49.803Z,1.1
2022-09-27T08:06:50.066Z,1.0
2022-09-27T08:08:50.055Z,2.2
2022-09-27T08:10:49.972Z,2.2
2022-09-27T08:12:49.904Z,1.1
2022-09-27T08:14:49.841Z,1.0
2022-09-27T08:16:50.030Z,1.1
2022-09-27T08:18:50.127Z,1.1
2022-09-27T08:20:49.836Z,1.0
2022-09-27T08:22:49.902Z,1.0
2022-09-27T08:24:49.885Z,1.0
2022-09-27T08:26:50.243Z,1.0
2022-09-27T08:28:50.123Z,1.5
2022-09-27T08:30:50.091Z,1.4
2022-09-27T08:32:50.079Z,1.4
2022-09-27T08:34:49.725Z,1.2
2022-09-27T08:36:49.813Z,1.1
2022-09-27T08:38:49.764Z,1.1
2022-09-27T08:40:49.685Z,1.3
2022-09-27T08:42:50.071Z,1.2
2022-09-27T08:44:49.994Z,1.1
2022-09-27T08:46:50.284Z,2.2
2022-09-27T08:48:50.219Z,1.7
2022-09-27T08:50:50.414Z,1.7
2022-09-27T08:52:50.361Z,1.7
2022-09-27T08:54:50.229Z,1.0
2022-09-27T08:56:50.364Z,1.0
2022-09-27T08:58:50.328Z,1.1
2022-09-27T09:00:50.174Z,1.2
2022-09-27T09:02:50.215Z,1.0
2022-09-27T09:04:50.315Z,1.0
2022-09-27T09:06:49.581Z,1.0
2022-09-27T09:08:51.044Z,1.2
2022-09-27T09:10:50.176Z,1.2
2022-09-27T09:12:49.971Z,1.3
2022-09-27T09:14:49.731Z,1.3
2022-09-27T09:16:49.916Z,1.3
2022-09-27T09:18:50.037Z,1.3
2022-09-27T09:20:50.008Z,1.1
2022-09-27T09:22:49.857Z,1.1
2022-09-27T09:24:50.030Z,1.1
2022-09-27T09:26:50.111Z,2.9
2022-09-27T09:28:50.052Z,2.9
2022-09-27T09:30:49.885Z,2.9
2022-09-27T09:32:50.025Z,1.3
2022-09-27T09:34:49.618Z,1.3
2022-09-27T09:36:50.091Z,1.0
2022-09-27T09:38:50.355Z,1.0
2022-09-27T09:40:50.311Z,1.4
2022-09-27T09:42:49.633Z,1.0
2022-09-27T09:44:49.730Z,1.6
2022-09-27T09:46:50.207Z,3.0
2022-09-27T09:48:50.203Z,3.0
2022-09-27T09:50:50.480Z,1.1
2022-09-27T09:52:50.470Z,2.2
2022-09-27T09:54:50.493Z,1.1
2022-09-27T09:56:49.607Z,1.1
2022-09-27T09:58:49.543Z,1.0
2022-09-27T10:00:50.336Z,1.0
2022-09-27T10:02:50.438Z,1.0
2022-09-27T10:04:49.779Z,1.0
2022-09-27T10:06:49.732Z,1.0
2022-09-27T10:08:49.777Z,1.2
2022-09-27T10:10:49.623Z,1.2
2022-09-27T10:12:49.543Z,1.2
2022-09-27T10:14:50.447Z,1.0
2022-09-27T10:16:49.884Z,1.0
2022-09-27T10:18:50.229Z,1.2
2022-09-27T10:20:50.168Z,1.1
2022-09-27T10:22:50.133Z,1.2
2022-09-27T10:24:49.841Z,1.0
2022-09-27T10:26:50.101Z,1.0
2022-09-27T10:28:49.822Z,1.2
2022-09-27T10:30:49.804Z,0.9
2022-09-27T10:32:50.519Z,0.9
2022-09-27T10:34:50.051Z,0.9
2022-09-27T10:36:50.020Z,0.9
2022-09-27T10:38:50.408Z,0.9
2022-09-27T10:40:50.184Z,1.3
2022-09-27T10:42:50.085Z,1.0
2022-09-27T10:44:49.945Z,1.0
2022-09-27T10:46:50.341Z,1.8
2022-09-27T10:48:50.463Z,1.4
2022-09-27T10:50:52.935Z,1.0
2022-09-27T10:52:50.541Z,1.1
2022-09-27T10:54:50.462Z,1.1
2022-09-27T10:56:49.755Z,1.5
2022-09-27T10:58:50.096Z,4.1
2022-09-27T11:00:49.678Z,3.2
2022-09-27T11:02:49.626Z,1.3
2022-09-27T11:04:50.033Z,1.3
2022-09-27T11:06:50.313Z,2.1
2022-09-27T11:08:50.273Z,2.5
2022-09-27T11:10:50.104Z,2.5
2022-09-27T11:12:50.063Z,1.1
2022-09-27T11:14:49.905Z,1.1
2022-09-27T11:16:50.191Z,0.9
2022-09-27T11:18:50.177Z,1.7
2022-09-27T11:20:49.951Z,1.7
2022-09-27T11:22:50.495Z,1.1
2022-09-27T11:24:50.333Z,1.1
2022-09-27T11:26:50.425Z,1.1
2022-09-27T11:28:50.326Z,1.3
2022-09-27T11:30:50.158Z,1.3
2022-09-27T11:32:49.989Z,1.0
2022-09-27T11:34:49.539Z,1.9
2022-09-27T11:36:53.759Z,1.0
2022-09-27T11:38:52.986Z,1.0
2022-09-27T11:40:49.974Z,1.0
2022-09-27T11:42:50.079Z,1.0
2022-09-27T11:44:53.325Z,1.1
2022-09-27T11:46:50.000Z,1.0
2022-09-27T11:48:50.053Z,1.0
2022-09-27T11:50:49.953Z,1.0
2022-09-27T11:52:49.851Z,1.0
2022-09-27T11:54:49.817Z,1.0
2022-09-27T11:56:50.081Z,0.8
2022-09-27T11:58:50.017Z,0.8
2022-09-27T12:00:49.861Z,0.8
2022-09-27T12:02:49.788Z,1.8
2022-09-27T12:04:49.584Z,1.0
2022-09-27T12:06:50.214Z,0.7
2022-09-27T12:08:49.987Z,0.8
2022-09-27T12:10:49.945Z,0.9
2022-09-27T12:12:49.751Z,0.9
2022-09-27T12:14:49.599Z,0.9
2022-09-27T12:16:49.674Z,0.9
2022-09-27T12:18:51.422Z,0.8
2022-09-27T12:20:49.645Z,0.8
2022-09-27T12:22:57.887Z,1.2
2022-09-27T12:24:50.538Z,1.1
2022-09-27T12:26:49.752Z,1.1
2022-09-27T12:28:50.317Z,1.1
2022-09-27T12:30:57.842Z,1.0
2022-09-27T12:32:49.899Z,0.9
2022-09-27T12:34:49.653Z,1.2
2022-09-27T12:36:49.798Z,1.1
2022-09-27T12:38:49.752Z,1.9
2022-09-27T12:40:49.825Z,1.9
2022-09-27T12:42:50.186Z,1.3
2022-09-27T12:44:50.742Z,1.3
2022-09-27T12:46:50.483Z,1.3
2022-09-27T12:48:49.681Z,1.1
2022-09-27T12:50:49.674Z,1.1
2022-09-27T12:52:49.669Z,1.5
2022-09-27T12:54:50.431Z,1.2
2022-09-27T12:56:49.774Z,1.4
2022-09-27T12:58:49.686Z,1.4
2022-09-27T13:00:49.648Z,1.5
2022-09-27T13:03:11.404Z,1.7
2022-09-27T13:04:49.982Z,1.7
2022-09-27T13:06:50.075Z,1.7
2022-09-27T13:08:53.849Z,1.3
2022-09-27T13:10:50.243Z,1.4
2022-09-27T13:12:50.235Z,1.5
2022-09-27T13:14:50.119Z,1.8
2022-09-27T13:16:50.300Z,1.6
2022-09-27T13:18:50.189Z,1.6
2022-09-27T13:20:50.185Z,1.7
2022-09-27T13:22:50.105Z,1.5
2022-09-27T13:24:49.954Z,1.8
2022-09-27T13:26:50.262Z,1.6
2022-09-27T13:28:50.183Z,1.6
2022-09-27T13:30:50.169Z,1.8
2022-09-27T13:32:49.992Z,1.5
2022-09-27T13:34:50.364Z,1.4
2022-09-27T13:36:49.675Z,1.4
2022-09-27T13:38:49.794Z,2.4
2022-09-27T13:40:50.076Z,2.8
2022-09-27T13:42:49.597Z,1.8
2022-09-27T13:44:50.554Z,2.0
2022-09-27T13:46:53.104Z,1.6
2022-09-27T13:48:49.959Z,1.6
2022-09-27T13:50:49.931Z,1.9
2022-09-27T13:52:49.726Z,1.6
2022-09-27T13:54:49.662Z,1.5
2022-09-27T13:56:49.965Z,1.5
2022-09-27T13:58:49.817Z,1.7
2022-09-27T14:00:50.555Z,1.6
2022-09-27T14:02:49.682Z,1.7
2022-09-27T14:04:49.985Z,1.7
2022-09-27T14:06:50.167Z,1.6
2022-09-27T14:08:49.936Z,3.2
2022-09-27T14:10:50.263Z,1.9
2022-09-27T14:12:49.948Z,1.5
2022-09-27T14:14:49.933Z,1.5
2022-09-27T14:16:49.978Z,1.3
2022-09-27T14:18:50.156Z,1.4
2022-09-27T14:20:49.927Z,2.1
2022-09-27T14:22:49.948Z,2.1
2022-09-27T14:24:50.037Z,1.5
2022-09-27T14:26:50.359Z,1.5
2022-09-27T14:28:50.184Z,1.3
2022-09-27T14:30:50.239Z,1.4
2022-09-27T14:32:50.354Z,1.5
2022-09-27T14:34:49.715Z,1.5
2022-09-27T14:36:49.811Z,1.4
2022-09-27T14:38:49.727Z,2.8
2022-09-27T14:40:49.827Z,1.5
2022-09-27T14:42:50.001Z,1.5
2022-09-27T14:44:49.734Z,1.4
2022-09-27T14:46:49.983Z,1.4
2022-09-27T14:48:49.601Z,1.3
2022-09-27T14:50:50.432Z,1.4
2022-09-27T14:52:50.341Z,1.4
2022-09-27T14:54:50.253Z,1.4
2022-09-27T14:56:52.848Z,3.9
2022-09-27T14:58:49.568Z,1.6
2022-09-27T15:00:49.602Z,1.6
2022-09-27T15:02:49.687Z,1.9
2022-09-27T15:04:50.207Z,1.9
2022-09-27T15:06:50.428Z,1.7
2022-09-27T15:08:49.678Z,1.4
2022-09-27T15:10:50.501Z,1.6
2022-09-27T15:12:50.448Z,1.6
2022-09-27T15:14:53.963Z,1.6
2022-09-27T15:16:49.836Z,1.8
2022-09-27T15:18:49.768Z,1.4
2022-09-27T15:20:49.580Z,1.8
2022-09-27T15:22:50.539Z,1.8
2022-09-27T15:24:49.593Z,1.3
2022-09-27T15:26:49.787Z,3.7
2022-09-27T15:28:49.636Z,1.5
2022-09-27T15:30:50.541Z,2.1
2022-09-27T15:32:49.825Z,2.1
2022-09-27T15:34:50.179Z,2.6
2022-09-27T15:36:50.236Z,1.7
2022-09-27T15:38:50.272Z,1.5
2022-09-27T15:40:50.184Z,1.5
2022-09-27T15:42:49.680Z,1.5
2022-09-27T15:44:50.554Z,2.3
2022-09-27T15:46:50.011Z,1.5
2022-09-27T15:48:50.245Z,1.7
2022-09-27T15:50:50.140Z,1.7
2022-09-27T15:52:50.137Z,1.5
2022-09-27T15:54:50.248Z,1.4
2022-09-27T15:56:53.330Z,1.4
2022-09-27T15:58:50.410Z,1.2
2022-09-27T16:00:50.167Z,1.4
2022-09-27T16:02:50.378Z,1.4
2022-09-27T16:04:49.776Z,1.4
2022-09-27T16:06:49.892Z,1.2
2022-09-27T16:08:50.112Z,1.2
2022-09-27T16:10:50.042Z,1.2
2022-09-27T16:12:50.085Z,1.2
2022-09-27T16:14:50.009Z,1.4
2022-09-27T16:16:49.881Z,1.2
2022-09-27T16:18:49.782Z,1.4
2022-09-27T16:20:49.811Z,1.2
2022-09-27T16:22:49.737Z,1.2
2022-09-27T16:24:50.483Z,1.2
2022-09-27T16:26:49.603Z,1.4
2022-09-27T16:28:49.669Z,1.2
2022-09-27T16:30:50.609Z,1.2
2022-09-27T16:32:50.049Z,1.3
2022-09-27T16:34:50.535Z,1.4
2022-09-27T16:36:50.186Z,1.4
2022-09-27T16:38:50.129Z,1.9
2022-09-27T16:40:49.970Z,1.2
2022-09-27T16:42:50.272Z,1.2
2022-09-27T16:44:50.209Z,1.3
2022-09-27T16:46:50.470Z,1.3
2022-09-27T16:48:49.869Z,1.4
2022-09-27T16:50:49.652Z,1.4
2022-09-27T16:52:49.780Z,1.3
2022-09-27T16:54:49.609Z,1.7
2022-09-27T16:56:53.282Z,1.3
2022-09-27T16:58:50.022Z,1.3
2022-09-27T17:00:50.047Z,1.3
2022-09-27T17:02:50.889Z,1.3
2022-09-27T17:04:50.427Z,1.1
2022-09-27T17:06:49.630Z,1.7
2022-09-27T17:08:50.388Z,1.6
2022-09-27T17:10:50.534Z,1.6
2022-09-27T17:12:50.374Z,1.5
2022-09-27T17:14:50.303Z,2.3
2022-09-27T17:16:49.595Z,2.3
2022-09-27T17:18:50.502Z,2.3
2022-09-27T17:20:50.490Z,2.7
2022-09-27T17:22:50.504Z,1.4
2022-09-27T17:24:50.101Z,1.4
2022-09-27T17:26:50.256Z,1.4
2022-09-27T17:28:50.017Z,1.7
2022-09-27T17:30:49.821Z,2.0
2022-09-27T17:32:49.762Z,1.7
2022-09-27T17:34:49.835Z,1.8
2022-09-27T17:36:50.168Z,1.8
2022-09-27T17:38:49.810Z,1.8
2022-09-27T17:40:49.747Z,2.2
2022-09-27T17:42:49.850Z,2.5
2022-09-27T17:44:49.831Z,2.5
2022-09-27T17:46:50.289Z,2.2
2022-09-27T17:48:50.510Z,2.2
2022-09-27T17:50:49.577Z,2.7
2022-09-27T17:52:50.306Z,2.2
2022-09-27T17:54:50.273Z,2.2
2022-09-27T17:56:50.359Z,2.4
2022-09-27T17:58:50.196Z,2.4
2022-09-27T18:00:49.897Z,1.9
2022-09-27T18:02:49.637Z,2.4
2022-09-27T18:04:49.558Z,2.4
2022-09-27T18:06:49.778Z,1.8
2022-09-27T18:08:49.815Z,1.8
2022-09-27T18:10:49.604Z,1.7
2022-09-27T18:12:50.366Z,1.6
2022-09-27T18:14:50.330Z,1.4
2022-09-27T18:16:50.520Z,1.4
2022-09-27T18:18:50.427Z,1.3
2022-09-27T18:20:50.186Z,2.2
2022-09-27T18:22:49.843Z,1.1
2022-09-27T18:24:49.834Z,1.2
2022-09-27T18:26:49.832Z,1.2
2022-09-27T18:28:49.990Z,1.1
2022-09-27T18:30:49.921Z,1.3
2022-09-27T18:32:49.568Z,1.6
2022-09-27T18:34:49.725Z,1.6
2022-09-27T18:36:49.790Z,1.2
2022-09-27T18:38:49.625Z,1.2
2022-09-27T18:40:56.366Z,1.3
2022-09-27T18:42:50.158Z,1.3
2022-09-27T18:44:50.040Z,1.1
2022-09-27T18:46:50.318Z,1.2
2022-09-27T18:48:49.655Z,1.2
2022-09-27T18:50:50.333Z,1.4
2022-09-27T18:52:50.109Z,1.4
2022-09-27T18:54:50.067Z,1.4
2022-09-27T18:56:50.215Z,1.4
2022-09-27T18:58:50.254Z,1.6
2022-09-27T19:00:49.974Z,1.6
2022-09-27T19:02:50.116Z,1.6
2022-09-27T19:04:50.445Z,1.4
2022-09-27T19:06:49.610Z,1.3
2022-09-27T19:08:49.570Z,1.6
2022-09-27T19:10:50.518Z,1.4
2022-09-27T19:12:50.372Z,2.6
2022-09-27T19:14:50.352Z,2.6
2022-09-27T19:16:49.606Z,1.4
2022-09-27T19:18:49.590Z,1.5
2022-09-27T19:20:50.482Z,1.8
2022-09-27T19:22:50.232Z,2.5
2022-09-27T19:24:50.319Z,2.5
2022-09-27T19:26:50.354Z,2.3
2022-09-27T19:28:50.075Z,1.9
2022-09-27T19:30:50.020Z,2.1
2022-09-27T19:32:49.939Z,2.1
2022-09-27T19:34:50.386Z,1.9
2022-09-27T19:36:50.546Z,1.9
2022-09-27T19:38:50.435Z,2.1
2022-09-27T19:40:50.328Z,2.1
2022-09-27T19:42:50.387Z,2.2
2022-09-27T19:44:50.153Z,2.1
2022-09-27T19:46:50.328Z,2.5
2022-09-27T19:48:50.477Z,2.3
2022-09-27T19:50:50.523Z,2.3
2022-09-27T19:52:50.434Z,3.0
2022-09-27T19:54:50.359Z,2.1
2022-09-27T19:56:50.538Z,2.3
2022-09-27T19:58:50.374Z,2.3
2022-09-27T20:00:50.184Z,2.3
2022-09-27T20:02:49.903Z,2.9
2022-09-27T20:04:50.488Z,3.2
2022-09-27T20:06:49.867Z,3.1
2022-09-27T20:08:49.651Z,2.6
2022-09-27T20:10:50.487Z,2.7
2022-09-27T20:12:50.190Z,2.7
2022-09-27T20:14:50.090Z,2.7
2022-09-27T20:16:50.292Z,2.6
2022-09-27T20:18:50.252Z,3.0
2022-09-27T20:20:50.172Z,3.0
2022-09-27T20:22:50.008Z,3.0
2022-09-27T20:24:50.100Z,3.3
2022-09-27T20:26:50.395Z,3.3
2022-09-27T20:28:50.268Z,2.8
2022-09-27T20:30:50.483Z,2.4
2022-09-27T20:32:50.406Z,2.4
2022-09-27T20:34:49.748Z,3.4
2022-09-27T20:36:49.903Z,3.4
2022-09-27T20:38:49.679Z,3.4
2022-09-27T20:40:49.680Z,4.3
2022-09-27T20:42:49.952Z,3.5
2022-09-27T20:44:54.073Z,3.6
2022-09-27T20:46:49.768Z,3.0
2022-09-27T20:48:49.742Z,2.8
2022-09-27T20:50:49.693Z,2.8
2022-09-27T20:52:49.565Z,2.7
2022-09-27T20:54:49.555Z,2.4
2022-09-27T20:56:49.678Z,3.4
2022-09-27T20:58:50.538Z,3.0
2022-09-27T21:00:50.378Z,3.0
2022-09-27T21:02:50.491Z,3.0
2022-09-27T21:04:49.780Z,2.4
2022-09-27T21:06:50.073Z,2.0
2022-09-27T21:08:49.800Z,2.0
2022-09-27T21:10:52.596Z,2.2
2022-09-27T21:12:49.898Z,2.7
2022-09-27T21:14:49.683Z,2.1
2022-09-27T21:16:49.803Z,2.1
2022-09-27T21:18:50.497Z,1.8
2022-09-27T21:20:50.414Z,1.8
2022-09-27T21:22:50.215Z,2.2
2022-09-27T21:24:50.121Z,2.1
2022-09-27T21:26:50.395Z,2.1
2022-09-27T21:28:50.113Z,2.1
2022-09-27T21:30:50.134Z,3.5
2022-09-27T21:32:49.824Z,2.9
2022-09-27T21:34:50.106Z,1.8
2022-09-27T21:36:50.175Z,1.8
2022-09-27T21:38:50.010Z,2.8
2022-09-27T21:40:49.957Z,2.1
2022-09-27T21:42:52.378Z,2.2
2022-09-27T21:44:49.819Z,4.3
2022-09-27T21:46:50.034Z,4.3
2022-09-27T21:48:50.455Z,2.5
2022-09-27T21:50:50.028Z,4.2
2022-09-27T21:52:49.839Z,2.6
2022-09-27T21:54:49.974Z,2.4
2022-09-27T21:56:50.081Z,2.4
2022-09-27T21:58:50.080Z,2.4
2022-09-27T22:00:49.997Z,4.0
2022-09-27T22:02:50.348Z,2.6
2022-09-27T22:04:49.581Z,2.7
2022-09-27T22:06:49.584Z,2.7
2022-09-27T22:08:49.555Z,3.0
2022-09-27T22:10:50.271Z,2.6
2022-09-27T22:12:50.103Z,2.6
2022-09-27T22:14:49.961Z,2.6
2022-09-27T22:16:50.207Z,3.0
2022-09-27T22:18:49.895Z,2.6
2022-09-27T22:20:49.779Z,2.5
2022-09-27T22:22:49.741Z,2.7
2022-09-27T22:24:50.447Z,2.9
2022-09-27T22:26:49.623Z,2.9
2022-09-27T22:28:49.902Z,2.4
2022-09-27T22:30:49.728Z,2.9
2022-09-27T22:32:49.688Z,2.9
2022-09-27T22:34:50.189Z,3.5
2022-09-27T22:36:50.390Z,3.5
2022-09-27T22:38:50.310Z,3.0
2022-09-27T22:40:50.347Z,3.0
2022-09-27T22:42:49.690Z,3.0
2022-09-27T22:44:50.483Z,4.6
2022-09-27T22:46:49.866Z,4.6
2022-09-27T22:48:50.081Z,4.0
2022-09-27T22:50:50.022Z,4.2
2022-09-27T22:52:49.810Z,4.2
2022-09-27T22:54:50.499Z,4.5
2022-09-27T22:56:49.708Z,4.5
2022-09-27T22:58:50.418Z,3.3
2022-09-27T23:00:50.299Z,5.0
2022-09-27T23:02:49.615Z,5.0
2022-09-27T23:04:50.099Z,4.7
2022-09-27T23:06:50.203Z,4.2
2022-09-27T23:08:49.980Z,3.4
2022-09-27T23:10:49.870Z,4.6
2022-09-27T23:12:49.625Z,3.4
2022-09-27T23:14:50.507Z,3.4
2022-09-27T23:16:49.802Z,3.2
2022-09-27T23:18:49.601Z,4.5
2022-09-27T23:20:50.424Z,6.0
2022-09-27T23:22:50.139Z,3.3
2022-09-27T23:24:50.012Z,3.3
2022-09-27T23:26:50.101Z,4.8
2022-09-27T23:28:49.910Z,4.7
2022-09-27T23:30:49.842Z,3.2
2022-09-27T23:32:49.717Z,3.2
2022-09-27T23:34:49.915Z,3.3
2022-09-27T23:36:50.098Z,3.2
2022-09-27T23:38:49.804Z,3.4
2022-09-27T23:40:49.664Z,4.7
2022-09-27T23:42:49.759Z,4.7
2022-09-27T23:44:49.653Z,3.5
2022-09-27T23:46:50.015Z,3.7
2022-09-27T23:48:50.062Z,4.0
2022-09-27T23:50:49.736Z,3.3
2022-09-27T23:52:49.573Z,3.3
2022-09-27T23:54:50.336Z,3.0
2022-09-27T23:56:50.398Z,3.4
2022-09-27T23:58:50.233Z,2.9
